createdAt,value
2019-05-21T00:00:39.089Z,94684.59
2019-05-21T00:03:06.516Z,94689.24
2019-05-21T00:05:33.943Z,94684.16
2019-05-21T00:08:01.370Z,94688.52
2019-05-21T00:10:28.757Z,94672.32
2019-05-21T00:12:56.346Z,94674.79
2019-05-21T00:15:23.762Z,94668.27
2019-05-21T00:17:51.184Z,94672.58
2019-05-21T00:20:19.398Z,94676.77
2019-05-21T00:22:46.875Z,94676.53
2019-05-21T00:25:17.134Z,94677.25
2019-05-21T00:27:43.698Z,94667.49
2019-05-21T00:30:47.678Z,94677.22
2019-05-21T00:33:51.592Z,94674.35
2019-05-21T00:37:00.614Z,94690.48
2019-05-21T00:40:04.718Z,94706.33
2019-05-21T00:42:35.663Z,94709.59
2019-05-21T00:45:06.900Z,94689.44
2019-05-21T00:47:34.796Z,94695.13
2019-05-21T00:50:02.551Z,94708.52
2019-05-21T00:52:30.063Z,94705.77
2019-05-21T00:54:57.539Z,94700.45
2019-05-21T00:57:24.942Z,94698.66
2019-05-21T00:59:52.373Z,94697.77
2019-05-21T01:02:19.804Z,94699.38
2019-05-21T01:04:59.482Z,94699.47
2019-05-21T01:07:16.722Z,94704.59
2019-05-21T01:09:44.144Z,94696.76
2019-05-21T01:12:11.515Z,94694.70
2019-05-21T01:14:38.929Z,94718.95
2019-05-21T01:17:06.377Z,94710.82
2019-05-21T01:19:33.751Z,94713.05
2019-05-21T01:22:01.175Z,94720.63
2019-05-21T01:24:28.625Z,94695.16
2019-05-21T01:26:56.039Z,94690.16
2019-05-21T01:29:23.519Z,94676.01
2019-05-21T01:31:50.955Z,94682.09
2019-05-21T01:34:18.564Z,94667.94
2019-05-21T01:36:46.062Z,94666.70
2019-05-21T01:39:13.553Z,94690.47
2019-05-21T01:41:40.972Z,94698.98
2019-05-21T01:44:08.452Z,94699.58
2019-05-21T01:46:35.933Z,94697.16
2019-05-21T01:49:03.622Z,94675.95
2019-05-21T01:51:31.206Z,94648.99
2019-05-21T01:53:58.705Z,94654.10
2019-05-21T01:56:26.093Z,94670.45
2019-05-21T01:58:53.540Z,94662.86
2019-05-21T02:01:20.979Z,94687.48
2019-05-21T02:03:48.393Z,94626.47
2019-05-21T02:06:15.828Z,94663.50
2019-05-21T02:08:43.314Z,94695.11
2019-05-21T02:11:10.737Z,94686.99
2019-05-21T02:13:38.123Z,94665.13
2019-05-21T02:16:05.583Z,94645.91
2019-05-21T02:18:33.051Z,94688.59
2019-05-21T02:21:00.411Z,94665.28
2019-05-21T02:23:27.864Z,94694.78
2019-05-21T02:25:55.351Z,94684.80
2019-05-21T02:28:22.895Z,94693.34
2019-05-21T02:30:50.274Z,94666.53
2019-05-21T02:33:17.676Z,94698.05
2019-05-21T02:35:54.305Z,94701.88
2019-05-21T02:38:14.545Z,94711.14
2019-05-21T02:40:41.996Z,94690.38
2019-05-21T02:43:09.896Z,94691.38
2019-05-21T02:45:37.348Z,94713.06
2019-05-21T02:48:05.366Z,94720.55
2019-05-21T02:50:32.780Z,94702.25
2019-05-21T02:53:00.201Z,94679.34
2019-05-21T02:55:27.610Z,94697.06
2019-05-21T02:57:55.063Z,94708.61
2019-05-21T03:00:31.808Z,94736.91
2019-05-21T03:02:59.487Z,94720.50
2019-05-21T03:05:26.959Z,94727.44
2019-05-21T03:07:54.347Z,94735.27
2019-05-21T03:10:21.842Z,94712.34
2019-05-21T03:12:50.092Z,94738.12
2019-05-21T03:15:17.568Z,94725.30
2019-05-21T03:17:45.149Z,94718.78
2019-05-21T03:20:13.070Z,94731.23
2019-05-21T03:22:40.459Z,94757.63
2019-05-21T03:25:08.213Z,94750.59
2019-05-21T03:27:35.641Z,94748.32
2019-05-21T03:30:03.572Z,94750.37
2019-05-21T03:32:30.965Z,94746.38
2019-05-21T03:34:58.421Z,94740.87
2019-05-21T03:37:25.859Z,94765.00
2019-05-21T03:39:53.341Z,94752.47
2019-05-21T03:42:20.839Z,94762.44
2019-05-21T03:44:59.116Z,94762.84
2019-05-21T03:47:17.638Z,94778.61
2019-05-21T03:49:45.364Z,94776.89
2019-05-21T03:52:12.816Z,94758.96
2019-05-21T03:54:40.253Z,94767.83
2019-05-21T03:57:07.701Z,94760.00
2019-05-21T03:59:35.081Z,94758.95
2019-05-21T04:02:02.614Z,94777.32
2019-05-21T04:04:30.086Z,94772.76
2019-05-21T04:06:57.491Z,94771.97
2019-05-21T04:09:25.064Z,94772.59
2019-05-21T04:11:53.383Z,94765.95
2019-05-21T04:14:33.048Z,94775.08
2019-05-21T04:17:20.239Z,94784.14
2019-05-21T04:19:48.189Z,94788.10
2019-05-21T04:22:16.229Z,94787.90
2019-05-21T04:24:43.794Z,94778.09
2019-05-21T04:27:11.450Z,94786.37
2019-05-21T04:29:38.880Z,94787.34
2019-05-21T04:32:06.399Z,94788.55
2019-05-21T04:34:33.870Z,94790.55
2019-05-21T04:37:10.920Z,94785.11
2019-05-21T04:39:30.674Z,94788.20
2019-05-21T04:41:58.295Z,94787.54
2019-05-21T04:44:25.649Z,94791.00
2019-05-21T04:46:53.102Z,94782.98
2019-05-21T04:49:20.528Z,94796.58
2019-05-21T04:51:48.011Z,94796.81
2019-05-21T04:54:15.462Z,94785.98
2019-05-21T04:56:43.001Z,94791.11
2019-05-21T04:59:10.432Z,94787.17
2019-05-21T05:01:37.818Z,94781.91
2019-05-21T05:04:05.390Z,94789.04
2019-05-21T05:06:32.858Z,94800.47
2019-05-21T05:09:00.355Z,94801.20
2019-05-21T05:11:27.743Z,94814.41
2019-05-21T05:13:55.204Z,94801.36
2019-05-21T05:16:22.669Z,94799.39
2019-05-21T05:18:50.058Z,94804.92
2019-05-21T05:21:17.502Z,94803.16
2019-05-21T05:23:44.926Z,94798.59
2019-05-21T05:26:12.510Z,94796.57
2019-05-21T05:28:39.964Z,94788.64
2019-05-21T05:31:07.399Z,94785.25
2019-05-21T05:33:34.880Z,94789.55
2019-05-21T05:36:02.352Z,94790.67
2019-05-21T05:38:29.762Z,94793.93
2019-05-21T05:40:57.223Z,94799.02
2019-05-21T05:43:24.820Z,94808.52
2019-05-21T05:45:52.296Z,94806.77
2019-05-21T05:48:20.946Z,94801.48
2019-05-21T05:50:50.392Z,94798.31
2019-05-21T05:53:17.824Z,94803.77
2019-05-21T05:55:45.339Z,94799.02
2019-05-21T05:58:12.786Z,94798.73
2019-05-21T06:00:40.217Z,94797.38
2019-05-21T06:03:07.665Z,94804.19
2019-05-21T06:05:35.196Z,94808.80
2019-05-21T06:08:02.672Z,94805.92
2019-05-21T06:10:30.051Z,94809.38
2019-05-21T06:12:57.506Z,94806.89
2019-05-21T06:15:24.948Z,94804.97
2019-05-21T06:17:52.322Z,94799.14
2019-05-21T06:20:20.114Z,94803.16
2019-05-21T06:22:47.554Z,94793.40
2019-05-21T06:25:17.001Z,94803.16
2019-05-21T06:27:44.434Z,94806.67
2019-05-21T06:30:12.367Z,94806.20
2019-05-21T06:32:39.820Z,94805.50
2019-05-21T06:35:07.394Z,94806.91
2019-05-21T06:37:34.794Z,94808.85
2019-05-21T06:40:02.633Z,94813.88
2019-05-21T06:42:30.103Z,94814.14
2019-05-21T06:44:57.615Z,94811.84
2019-05-21T06:47:25.077Z,94813.47
2019-05-21T06:49:52.526Z,94811.39
2019-05-21T06:52:20.661Z,94806.70
2019-05-21T06:54:48.157Z,94808.80
2019-05-21T06:57:15.675Z,94809.55
2019-05-21T06:59:43.061Z,94812.66
2019-05-21T07:02:10.641Z,94801.49
2019-05-21T07:04:38.156Z,94799.39
2019-05-21T07:07:05.655Z,94795.87
2019-05-21T07:09:33.126Z,94801.63
2019-05-21T07:12:00.600Z,94808.64
2019-05-21T07:14:27.988Z,94794.85
2019-05-21T07:16:55.404Z,94799.64
2019-05-21T07:19:22.894Z,94802.91
2019-05-21T07:21:50.473Z,94795.33
2019-05-21T07:24:17.947Z,94793.51
2019-05-21T07:26:45.744Z,94794.19
2019-05-21T07:29:13.279Z,94793.17
2019-05-21T07:31:40.699Z,94791.42
2019-05-21T07:34:08.170Z,94790.08
2019-05-21T07:36:35.638Z,94779.72
2019-05-21T07:39:05.292Z,94780.86
2019-05-21T07:41:32.631Z,94776.58
2019-05-21T07:44:00.137Z,94769.64
2019-05-21T07:46:27.746Z,94780.70
2019-05-21T07:48:55.206Z,94774.44
2019-05-21T07:51:22.777Z,94777.31
2019-05-21T07:53:50.223Z,94772.20
2019-05-21T07:56:17.588Z,94779.31
2019-05-21T07:58:45.020Z,94765.98
2019-05-21T08:01:12.463Z,94776.95
2019-05-21T08:03:39.876Z,94767.45
2019-05-21T08:06:07.336Z,94771.91
2019-05-21T08:08:34.771Z,94769.39
2019-05-21T08:11:02.139Z,94775.96
2019-05-21T08:13:29.568Z,94766.46
2019-05-21T08:15:57.001Z,94772.55
2019-05-21T08:18:24.429Z,94765.90
2019-05-21T08:20:51.879Z,94771.39
2019-05-21T08:23:19.349Z,94771.92
2019-05-21T08:25:47.670Z,94775.00
2019-05-21T08:28:15.107Z,94775.77
2019-05-21T08:30:42.543Z,94768.88
2019-05-21T08:33:10.007Z,94770.86
2019-05-21T08:35:37.477Z,94766.70
2019-05-21T08:38:06.703Z,94772.63
2019-05-21T08:40:34.437Z,94772.02
2019-05-21T08:43:01.913Z,94767.56
2019-05-21T08:45:29.383Z,94760.39
2019-05-21T08:47:57.100Z,94759.42
2019-05-21T08:50:24.566Z,94763.16
2019-05-21T08:52:52.128Z,94766.73
2019-05-21T08:55:19.636Z,94761.51
2019-05-21T08:58:05.062Z,94758.36
2019-05-21T09:00:20.487Z,94766.80
2019-05-21T09:02:47.974Z,94768.98
2019-05-21T09:05:15.659Z,94765.37
2019-05-21T09:07:43.384Z,94760.02
2019-05-21T09:10:12.737Z,94755.17
2019-05-21T09:12:40.161Z,94754.84
2019-05-21T09:15:09.486Z,94754.00
2019-05-21T09:17:36.945Z,94736.52
2019-05-21T09:20:05.343Z,94733.84
2019-05-21T09:22:32.910Z,94733.97
2019-05-21T09:25:00.418Z,94743.32
2019-05-21T09:27:27.804Z,94736.67
2019-05-21T09:29:55.241Z,94742.66
2019-05-21T09:32:22.724Z,94746.23
2019-05-21T09:34:50.132Z,94745.02
2019-05-21T09:37:19.998Z,94735.47
2019-05-21T09:39:47.160Z,94737.69
2019-05-21T09:42:14.567Z,94726.01
2019-05-21T09:44:42.304Z,94722.95
2019-05-21T09:47:09.887Z,94723.22
2019-05-21T09:49:37.554Z,94725.97
2019-05-21T09:52:05.078Z,94717.21
2019-05-21T09:54:32.535Z,94722.58
2019-05-21T09:57:00.778Z,94730.77
2019-05-21T09:59:42.689Z,94731.73
2019-05-21T10:02:13.832Z,94730.62
2019-05-21T10:04:41.292Z,94731.03
2019-05-21T10:07:11.137Z,94725.92
2019-05-21T10:09:38.595Z,94727.50
2019-05-21T10:12:06.595Z,94717.89
2019-05-21T10:14:34.554Z,94724.52
2019-05-21T10:17:02.033Z,94714.05
2019-05-21T10:19:29.497Z,94710.63
2019-05-21T10:21:57.241Z,94701.67
2019-05-21T10:24:24.743Z,94709.45
2019-05-21T10:26:52.244Z,94699.47
2019-05-21T10:29:19.714Z,94700.48
2019-05-21T10:31:47.204Z,94689.59
2019-05-21T10:34:14.733Z,94698.15
2019-05-21T10:36:42.191Z,94690.73
2019-05-21T10:39:10.175Z,94689.59
2019-05-21T10:41:37.715Z,94694.00
2019-05-21T10:44:05.302Z,94691.78
2019-05-21T10:46:32.835Z,94682.84
2019-05-21T10:49:00.338Z,94673.67
2019-05-21T10:51:28.658Z,94682.13
2019-05-21T10:53:56.350Z,94673.45
2019-05-21T10:56:23.744Z,94673.45
2019-05-21T10:58:51.300Z,94674.29
2019-05-21T11:01:28.433Z,94669.22
2019-05-21T11:04:13.884Z,94674.86
2019-05-21T11:06:42.442Z,94667.77
2019-05-21T11:09:15.855Z,94673.77
2019-05-21T11:11:43.445Z,94684.73
2019-05-21T11:14:10.973Z,94684.73
2019-05-21T11:16:38.579Z,94682.13
2019-05-21T11:19:06.138Z,94678.92
2019-05-21T11:21:33.593Z,94684.55
2019-05-21T11:24:01.140Z,94684.58
2019-05-21T11:26:28.654Z,94691.28
2019-05-21T11:28:56.085Z,94691.28
2019-05-21T11:31:23.619Z,94700.40
2019-05-21T11:33:51.096Z,94705.39
2019-05-21T11:36:18.571Z,94699.54
2019-05-21T11:38:46.013Z,94711.14
2019-05-21T11:41:13.555Z,94711.31
2019-05-21T11:43:40.995Z,94718.30
2019-05-21T11:46:08.550Z,94719.72
2019-05-21T11:48:36.003Z,94750.51
2019-05-21T11:51:03.537Z,94765.67
2019-05-21T11:53:32.138Z,94773.55
2019-05-21T11:55:59.866Z,94778.48
2019-05-21T11:58:27.347Z,94767.78
2019-05-21T12:03:22.177Z,94770.84
2019-05-21T12:05:49.737Z,94762.10
2019-05-21T12:08:17.132Z,94764.59
2019-05-21T12:10:44.638Z,94773.08
2019-05-21T12:13:12.088Z,94768.61
2019-05-21T12:15:39.578Z,94769.88
2019-05-21T12:18:07.087Z,94773.17
2019-05-21T12:20:37.190Z,94781.81
2019-05-21T12:23:03.929Z,94777.02
2019-05-21T12:25:31.416Z,94773.41
2019-05-21T12:27:58.820Z,94777.64
2019-05-21T12:30:26.334Z,94773.70
2019-05-21T12:32:53.804Z,94774.08
2019-05-21T12:35:21.319Z,94763.42
2019-05-21T12:37:48.759Z,94762.58
2019-05-21T12:40:16.969Z,94770.91
2019-05-21T12:42:44.403Z,94770.67
2019-05-21T12:45:12.447Z,94770.32
2019-05-21T12:47:39.901Z,94762.36
2019-05-21T12:50:07.844Z,94769.84
2019-05-21T12:52:35.410Z,94768.06
2019-05-21T12:55:03.475Z,94766.00
2019-05-21T12:57:30.926Z,94765.00
2019-05-21T12:59:58.447Z,94761.55
2019-05-21T13:02:25.822Z,94760.30
2019-05-21T13:04:53.286Z,94754.26
2019-05-21T13:07:20.844Z,94756.65
2019-05-21T13:09:48.276Z,94757.46
2019-05-21T13:12:15.761Z,94756.92
2019-05-21T13:14:43.232Z,94751.79
2019-05-21T13:17:10.856Z,94754.65
2019-05-21T13:19:38.471Z,94753.27
2019-05-21T13:22:05.910Z,94755.17
2019-05-21T13:24:33.440Z,94753.47
2019-05-21T13:27:00.867Z,94754.34
2019-05-21T13:29:28.281Z,94754.23
2019-05-21T13:31:55.717Z,94758.42
2019-05-21T13:34:23.169Z,94767.45
2019-05-21T13:36:50.604Z,94766.77
2019-05-21T13:39:18.148Z,94768.67
2019-05-21T13:41:45.610Z,94781.66
2019-05-21T13:44:13.029Z,94754.63
2019-05-21T13:46:40.482Z,94748.69
2019-05-21T13:49:08.034Z,94736.70
2019-05-21T13:51:36.032Z,94729.39
2019-05-21T13:54:03.875Z,94733.34
2019-05-21T13:56:31.520Z,94719.60
2019-05-21T13:58:58.955Z,94723.96
2019-05-21T14:01:39.924Z,94722.97
2019-05-21T14:03:56.120Z,94725.40
2019-05-21T14:06:23.810Z,94730.97
2019-05-21T14:08:51.219Z,94738.05
2019-05-21T14:11:20.169Z,94735.73
2019-05-21T14:13:47.704Z,94737.34
2019-05-21T14:16:15.244Z,94748.64
2019-05-21T14:18:42.692Z,94729.98
2019-05-21T14:21:10.139Z,94734.07
2019-05-21T14:23:37.676Z,94728.55
2019-05-21T14:26:05.396Z,94729.13
2019-05-21T14:28:34.613Z,94728.25
2019-05-21T14:31:02.483Z,94734.94
2019-05-21T14:33:29.921Z,94723.90
2019-05-21T14:35:57.451Z,94740.45
2019-05-21T14:38:24.930Z,94716.59
2019-05-21T14:40:52.403Z,94725.83
2019-05-21T14:43:19.782Z,94732.83
2019-05-21T14:45:47.236Z,94733.58
2019-05-21T14:48:14.702Z,94727.73
2019-05-21T14:50:42.234Z,94734.50
2019-05-21T14:53:09.749Z,94722.20
2019-05-21T14:55:37.292Z,94712.03
2019-05-21T14:58:04.976Z,94717.34
2019-05-21T15:00:35.584Z,94711.98
2019-05-21T15:03:03.106Z,94719.82
2019-05-21T15:05:30.769Z,94684.14
2019-05-21T15:07:58.195Z,94731.11
2019-05-21T15:10:25.661Z,94724.96
2019-05-21T15:12:53.178Z,94731.14
2019-05-21T15:15:20.742Z,94736.11
2019-05-21T15:17:49.229Z,94729.97
2019-05-21T15:20:25.177Z,94722.75
2019-05-21T15:22:52.710Z,94716.17
2019-05-21T15:25:20.180Z,94720.91
2019-05-21T15:27:47.732Z,94727.30
2019-05-21T15:30:15.320Z,94730.05
2019-05-21T15:32:42.687Z,94728.24
2019-05-21T15:35:10.397Z,94736.69
2019-05-21T15:37:37.909Z,94742.64
2019-05-21T15:40:05.630Z,94739.22
2019-05-21T15:42:33.105Z,94739.82
2019-05-21T15:45:00.553Z,94753.19
2019-05-21T15:47:28.109Z,94757.75
2019-05-21T15:49:55.582Z,94756.00
2019-05-21T15:52:23.047Z,94740.23
2019-05-21T15:54:50.693Z,94756.38
2019-05-21T15:57:18.197Z,94748.25
2019-05-21T15:59:45.818Z,94764.26
2019-05-21T16:02:13.421Z,94769.52
2019-05-21T16:04:40.919Z,94764.53
2019-05-21T16:07:08.413Z,94788.25
2019-05-21T16:09:36.087Z,94791.16
2019-05-21T16:12:03.680Z,94794.44
2019-05-21T16:14:31.109Z,94789.53
2019-05-21T16:16:58.659Z,94795.16
2019-05-21T16:19:26.072Z,94778.47
2019-05-21T16:21:53.601Z,94782.90
2019-05-21T16:24:21.060Z,94783.47
2019-05-21T16:26:48.567Z,94775.89
2019-05-21T16:29:16.178Z,94772.39
2019-05-21T16:31:43.676Z,94770.19
2019-05-21T16:34:11.161Z,94767.98
2019-05-21T16:36:38.646Z,94773.86
2019-05-21T16:39:07.421Z,94777.98
2019-05-21T16:41:44.290Z,94784.91
2019-05-21T16:44:04.609Z,94782.85
2019-05-21T16:46:32.130Z,94784.64
2019-05-21T16:48:59.525Z,94786.30
2019-05-21T16:51:26.973Z,94782.20
2019-05-21T16:53:56.044Z,94786.88
2019-05-21T16:56:24.074Z,94793.23
2019-05-21T16:58:51.589Z,94794.65
2019-05-21T17:01:19.059Z,94805.57
2019-05-21T17:03:59.138Z,94802.03
2019-05-21T17:06:16.035Z,94803.52
2019-05-21T17:08:43.600Z,94802.03
2019-05-21T17:11:11.077Z,94804.22
2019-05-21T17:13:38.535Z,94795.08
2019-05-21T17:16:05.952Z,94801.31
2019-05-21T17:18:33.439Z,94801.27
2019-05-21T17:21:00.880Z,94796.53
2019-05-21T17:23:28.329Z,94801.15
2019-05-21T17:25:55.751Z,94793.23
2019-05-21T17:28:23.277Z,94801.20
2019-05-21T17:30:50.811Z,94795.31
2019-05-21T17:33:18.239Z,94799.30
2019-05-21T17:35:45.818Z,94806.52
2019-05-21T17:38:13.292Z,94805.61
2019-05-21T17:40:40.879Z,94798.92
2019-05-21T17:43:08.371Z,94796.80
2019-05-21T17:45:35.942Z,94792.68
2019-05-21T17:48:03.548Z,94798.17
2019-05-21T17:50:31.068Z,94797.91
2019-05-21T17:52:58.522Z,94799.84
2019-05-21T17:55:28.077Z,94807.97
2019-05-21T17:57:55.913Z,94807.73
2019-05-21T18:00:42.149Z,94808.02
2019-05-21T18:03:09.922Z,94803.05
2019-05-21T18:05:37.995Z,94800.00
2019-05-21T18:08:05.549Z,94796.75
2019-05-21T18:10:33.023Z,94806.45
2019-05-21T18:13:00.796Z,94807.92
2019-05-21T18:15:28.187Z,94797.45
2019-05-21T18:17:56.528Z,94805.49
2019-05-21T18:20:24.539Z,94810.63
2019-05-21T18:22:51.957Z,94810.64
2019-05-21T18:25:19.673Z,94815.66
2019-05-21T18:27:47.715Z,94820.28
2019-05-21T18:30:15.396Z,94824.14
2019-05-21T18:32:43.435Z,94820.77
2019-05-21T18:35:12.444Z,94824.37
2019-05-21T18:37:40.145Z,94828.27
2019-05-21T18:40:08.522Z,94830.05
2019-05-21T18:42:36.029Z,94834.66
2019-05-21T18:45:04.331Z,94841.71
2019-05-21T18:47:31.771Z,94821.58
2019-05-21T18:49:59.205Z,94844.97
2019-05-21T18:52:26.657Z,94852.08
2019-05-21T18:54:54.157Z,94846.73
2019-05-21T18:57:21.913Z,94855.77
2019-05-21T18:59:49.506Z,94860.28
2019-05-21T19:02:17.150Z,94867.06
2019-05-21T19:04:44.566Z,94858.34
2019-05-21T19:07:12.561Z,94870.21
2019-05-21T19:09:40.035Z,94864.39
2019-05-21T19:12:07.400Z,94872.81
2019-05-21T19:14:35.048Z,94871.21
2019-05-21T19:17:02.545Z,94867.33
2019-05-21T19:19:29.971Z,94871.95
2019-05-21T19:21:57.446Z,94881.94
2019-05-21T19:24:24.924Z,94884.92
2019-05-21T19:26:52.472Z,94886.67
2019-05-21T19:29:19.985Z,94894.66
2019-05-21T19:31:49.386Z,94884.91
2019-05-21T19:34:16.979Z,94897.75
2019-05-21T19:36:44.463Z,94890.17
2019-05-21T19:39:11.985Z,94897.89
2019-05-21T19:41:39.401Z,94895.52
2019-05-21T19:44:06.817Z,94891.53
2019-05-21T19:46:34.386Z,94892.63
2019-05-21T19:49:01.859Z,94898.50
2019-05-21T19:51:29.288Z,94895.37
2019-05-21T19:53:56.845Z,94903.23
2019-05-21T19:56:25.064Z,94905.46
2019-05-21T19:58:52.560Z,94900.38
2019-05-21T20:01:20.341Z,94905.83
2019-05-21T20:03:48.507Z,94899.38
2019-05-21T20:06:17.924Z,94894.53
2019-05-21T20:08:45.423Z,94899.50
2019-05-21T20:11:14.777Z,94906.09
2019-05-21T20:13:42.387Z,94904.98
2019-05-21T20:16:10.915Z,94902.61
2019-05-21T20:18:39.974Z,94909.69
2019-05-21T20:21:08.842Z,94911.92
2019-05-21T20:23:36.855Z,94918.67
2019-05-21T20:26:10.051Z,94907.23
2019-05-21T20:28:38.268Z,94909.20
2019-05-21T20:31:06.269Z,94909.20
2019-05-21T20:33:35.568Z,94905.97
2019-05-21T20:36:03.659Z,94905.98
2019-05-21T20:38:31.174Z,94915.44
2019-05-21T20:40:58.957Z,94903.73
2019-05-21T20:43:26.489Z,94907.45
2019-05-21T20:45:54.323Z,94911.21
2019-05-21T20:48:25.616Z,94914.95
2019-05-21T20:50:53.315Z,94910.06
2019-05-21T20:53:21.272Z,94902.77
2019-05-21T20:55:49.170Z,94903.29
2019-05-21T20:58:17.055Z,94906.98
2019-05-21T21:00:49.189Z,94905.14
2019-05-21T21:03:17.128Z,94895.16
2019-05-21T21:05:44.817Z,94907.46
2019-05-21T21:08:13.237Z,94898.07
2019-05-21T21:10:40.831Z,94906.14
2019-05-21T21:13:10.943Z,94907.50
2019-05-21T21:15:38.411Z,94904.53
2019-05-21T21:18:05.977Z,94905.93
2019-05-21T21:20:33.603Z,94910.19
2019-05-21T21:23:01.179Z,94914.08
2019-05-21T21:25:29.473Z,94913.59
2019-05-21T21:27:57.044Z,94916.13
2019-05-21T21:30:24.900Z,94915.48
2019-05-21T21:32:52.974Z,94914.20
2019-05-21T21:35:20.519Z,94919.45
2019-05-21T21:37:48.520Z,94905.62
2019-05-21T21:40:18.037Z,94915.44
2019-05-21T21:42:45.571Z,94915.41
2019-05-21T21:45:13.763Z,94910.68
2019-05-21T21:47:41.411Z,94912.17
2019-05-21T21:50:10.073Z,94918.66
2019-05-21T21:52:37.560Z,94921.26
2019-05-21T21:55:06.478Z,94921.80
2019-05-21T21:57:34.370Z,94931.05
2019-05-21T22:00:07.714Z,94926.59
2019-05-21T22:02:35.624Z,94933.30
2019-05-21T22:05:06.027Z,94934.12
2019-05-21T22:07:34.097Z,94930.98
2019-05-21T22:10:01.667Z,94944.06
2019-05-21T22:12:29.149Z,94935.00
2019-05-21T22:14:59.577Z,94934.30
2019-05-21T22:17:27.390Z,94943.52
2019-05-21T22:19:54.855Z,94935.83
2019-05-21T22:22:22.943Z,94933.83
2019-05-21T22:24:50.448Z,94935.25
2019-05-21T22:27:17.988Z,94941.71
2019-05-21T22:29:45.443Z,94939.85
2019-05-21T22:32:16.566Z,94932.39
2019-05-21T22:34:42.530Z,94931.11
2019-05-21T22:37:12.420Z,94920.80
2019-05-21T22:39:42.080Z,94927.97
2019-05-21T22:42:10.466Z,94923.16
2019-05-21T22:44:38.385Z,94930.80
2019-05-21T22:47:07.050Z,94923.73
2019-05-21T22:49:35.095Z,94926.83
2019-05-21T22:52:02.740Z,94924.77
2019-05-21T22:54:30.231Z,94923.86
2019-05-21T22:56:57.898Z,94916.77
2019-05-21T22:59:25.550Z,94925.94
2019-05-21T23:01:55.821Z,94921.16
2019-05-21T23:04:23.291Z,94917.90
2019-05-21T23:06:50.850Z,94913.69
2019-05-21T23:09:18.371Z,94914.63
2019-05-21T23:11:45.846Z,94920.33
2019-05-21T23:14:13.344Z,94921.03
2019-05-21T23:16:41.315Z,94921.44
2019-05-21T23:19:10.883Z,94924.70
2019-05-21T23:21:39.193Z,94916.53
2019-05-21T23:24:12.483Z,94915.71
2019-05-21T23:26:40.332Z,94919.06
2019-05-21T23:29:08.138Z,94914.88
2019-05-21T23:31:35.654Z,94915.39
2019-05-21T23:34:04.852Z,94916.30
2019-05-21T23:36:32.489Z,94918.97
2019-05-21T23:38:59.943Z,94916.45
2019-05-21T23:41:28.180Z,94915.10
2019-05-21T23:43:55.655Z,94909.59
2019-05-21T23:46:23.323Z,94917.74
2019-05-21T23:48:51.297Z,94917.84
2019-05-21T23:51:18.831Z,94922.09
2019-05-21T23:53:46.340Z,94916.91
2019-05-21T23:56:14.998Z,94919.02
2019-05-21T23:58:42.951Z,94927.86
